Time;durP1;ratioP1;P1;durP2;ratioP2;P2;SDS_P1;SDS_P2;PMS_P1;PMS_P2;Temp;Humidity;BMP_temperature;BMP_pressure;BME280_temperature;BME280_humidity;BME280_pressure;Samples;Min_cycle;Max_cycle;Signal;HPM_P1;HPM_P2
2022/06/02 00:00:22;;;;;;;3.05;2.75;;;14.40;99.90;;;;;;5050050;28;20280;-72
2022/06/02 00:03:20;;;;;;;3.75;2.97;;;14.40;99.90;;;;;;5032955;28;20199;-72
2022/06/02 00:06:28;;;;;;;3.72;3.00;;;14.30;99.90;;;;;;5019238;28;20233;-72
2022/06/02 00:09:22;;;;;;;2.90;2.63;;;14.30;99.90;;;;;;5029346;28;20211;-73
2022/06/02 00:11:55;;;;;;;3.17;2.95;;;14.40;99.90;;;;;;5051465;28;20210;-72
2022/06/02 00:14:43;;;;;;;2.95;2.65;;;14.40;99.90;;;;;;5054003;28;20207;-72
2022/06/02 00:17:52;;;;;;;3.90;3.40;;;14.50;99.90;;;;;;5053665;28;20208;-71
2022/06/02 00:20:26;;;;;;;2.92;2.63;;;14.40;99.90;;;;;;5053633;28;20272;-72
2022/06/02 00:23:09;;;;;;;4.13;2.95;;;14.30;99.90;;;;;;5036238;28;20170;-71
2022/06/02 00:26:10;;;;;;;3.47;3.17;;;14.30;99.90;;;;;;5036162;28;20277;-71
2022/06/02 00:29:05;;;;;;;3.65;3.22;;;14.20;99.90;;;;;;5035484;28;20211;-72
2022/06/02 00:32:02;;;;;;;4.47;3.03;;;14.20;99.90;;;;;;5054155;28;20211;-73
2022/06/02 00:35:00;;;;;;;3.30;3.03;;;14.10;99.90;;;;;;5038537;28;20634;-72
2022/06/02 00:37:47;;;;;;;2.72;2.38;;;14.10;99.90;;;;;;5053967;28;20202;-72
2022/06/02 00:40:14;;;;;;;2.65;2.40;;;14.10;99.90;;;;;;5053556;28;20207;-72
2022/06/02 00:42:49;;;;;;;2.80;2.60;;;14.10;99.90;;;;;;5035384;28;20250;-72
2022/06/02 00:45:17;;;;;;;3.72;2.88;;;14.20;99.90;;;;;;5053417;28;20226;-72
2022/06/02 00:47:47;;;;;;;3.07;2.73;;;14.20;99.90;;;;;;5035049;28;20199;-72
2022/06/02 00:50:37;;;;;;;3.03;2.30;;;14.10;99.90;;;;;;5053138;28;20211;-72
2022/06/02 00:53:22;;;;;;;3.20;2.33;;;14.10;99.90;;;;;;5035308;28;20179;-71
2022/06/02 00:59:36;;;;;;;4.43;2.90;;;14.10;99.90;;;;;;5052723;28;20214;-72
2022/06/02 01:02:03;;;;;;;2.75;2.47;;;14.00;99.90;;;;;;5053209;28;20242;-72
2022/06/02 01:04:28;;;;;;;2.83;2.58;;;14.00;99.90;;;;;;5056141;28;20198;-72
2022/06/02 01:07:26;;;;;;;6.72;2.60;;;13.90;99.90;;;;;;5053097;28;20191;-72
2022/06/02 01:09:58;;;;;;;3.07;2.80;;;13.90;99.90;;;;;;5052376;28;20720;-72
2022/06/02 01:12:47;;;;;;;2.93;2.67;;;13.90;99.90;;;;;;5034800;28;20200;-73
2022/06/02 01:15:19;;;;;;;3.80;3.08;;;13.80;99.90;;;;;;5034894;28;20204;-72
2022/06/02 01:18:08;;;;;;;3.67;3.20;;;13.80;99.90;;;;;;5034354;28;20593;-72
2022/06/02 01:20:59;;;;;;;3.23;2.93;;;13.70;99.90;;;;;;5034764;28;20200;-72
2022/06/02 01:23:51;;;;;;;3.27;2.90;;;13.60;99.90;;;;;;5051501;28;20202;-72
2022/06/02 01:26:29;;;;;;;4.53;3.60;;;13.60;99.90;;;;;;5034816;28;20199;-72
2022/06/02 01:29:04;;;;;;;3.90;3.10;;;13.50;99.90;;;;;;5051941;28;20174;-72
2022/06/02 01:31:48;;;;;;;3.70;3.40;;;13.40;99.90;;;;;;5052920;28;20163;-72
2022/06/02 01:35:02;;;;;;;3.57;3.27;;;13.40;99.90;;;;;;5054150;28;20677;-72
2022/06/02 01:37:55;;;;;;;3.50;3.00;;;13.30;99.90;;;;;;5062130;22;20285;-67
2022/06/02 01:40:52;;;;;;;4.03;3.40;;;13.30;99.90;;;;;;5052403;28;20668;-67
2022/06/02 01:43:54;;;;;;;3.23;2.73;;;13.20;99.90;;;;;;5052909;28;20559;-67
2022/06/02 01:46:37;;;;;;;3.23;3.03;;;13.20;99.90;;;;;;5052746;28;20211;-67
2022/06/02 01:49:24;;;;;;;3.40;3.10;;;13.10;99.90;;;;;;5039903;28;20669;-67
2022/06/02 01:52:16;;;;;;;4.00;2.80;;;13.10;99.90;;;;;;5040536;28;20270;-67
2022/06/02 01:55:02;;;;;;;3.37;3.03;;;13.10;99.90;;;;;;5043220;28;20208;-68
2022/06/02 01:57:49;;;;;;;3.17;2.70;;;12.90;99.90;;;;;;5042620;28;20215;-67
2022/06/02 02:00:21;;;;;;;3.37;2.53;;;12.90;99.90;;;;;;5039986;28;20196;-67
2022/06/02 02:03:08;;;;;;;3.93;2.93;;;12.90;99.90;;;;;;5039998;28;20196;-67
2022/06/02 02:05:51;;;;;;;3.03;2.73;;;12.90;99.90;;;;;;5048291;28;20199;-67
2022/06/02 02:08:22;;;;;;;3.57;2.50;;;12.90;99.90;;;;;;5039449;28;20583;-68
2022/06/02 02:11:20;;;;;;;2.73;2.50;;;13.00;99.90;;;;;;5030379;28;20176;-68
2022/06/02 02:14:15;;;;;;;4.30;2.67;;;12.90;99.90;;;;;;5040691;28;20168;-67
2022/06/02 02:16:47;;;;;;;3.07;2.77;;;12.80;99.90;;;;;;5041963;28;20612;-68
2022/06/02 02:19:24;;;;;;;2.70;2.50;;;12.70;99.90;;;;;;5046558;28;20195;-68
2022/06/02 02:22:00;;;;;;;7.07;2.70;;;12.60;99.90;;;;;;5043929;28;20195;-67
2022/06/02 02:24:56;;;;;;;3.10;2.80;;;12.60;99.90;;;;;;5050967;28;20195;-67
2022/06/02 02:28:03;;;;;;;3.03;2.73;;;12.60;99.90;;;;;;5051121;28;20203;-67
2022/06/02 02:30:51;;;;;;;3.07;2.87;;;12.60;99.90;;;;;;5050916;28;20199;-67
2022/06/02 02:33:37;;;;;;;3.40;3.10;;;12.60;99.90;;;;;;5033455;28;20205;-67
2022/06/02 02:36:19;;;;;;;3.50;2.80;;;12.50;99.90;;;;;;5044795;28;20214;-67
2022/06/02 02:39:25;;;;;;;3.53;3.10;;;12.60;99.90;;;;;;5050418;28;20264;-67
2022/06/02 02:42:24;;;;;;;3.00;2.70;;;12.60;99.90;;;;;;5025880;28;20214;-66
2022/06/02 02:45:22;;;;;;;3.00;2.50;;;12.50;99.90;;;;;;5028297;28;20571;-67
2022/06/02 02:47:55;;;;;;;3.10;2.80;;;12.50;99.90;;;;;;5045113;28;20214;-67
2022/06/02 02:50:28;;;;;;;2.60;2.40;;;12.60;99.90;;;;;;5050301;28;20199;-67
2022/06/02 02:53:32;;;;;;;3.23;2.83;;;12.50;99.90;;;;;;5051127;28;20171;-67
2022/06/02 02:56:22;;;;;;;3.17;2.37;;;12.50;99.90;;;;;;5044253;28;20199;-67
2022/06/02 02:58:59;;;;;;;3.93;2.30;;;12.40;99.90;;;;;;5042395;28;20171;-67
2022/06/02 03:01:40;;;;;;;2.77;2.53;;;12.40;99.90;;;;;;5051274;28;20620;-67
2022/06/02 03:04:12;;;;;;;2.83;2.40;;;12.40;99.90;;;;;;5050938;28;20195;-67
2022/06/02 03:06:42;;;;;;;3.10;2.80;;;12.50;99.90;;;;;;5050591;28;20211;-67
2022/06/02 03:09:35;;;;;;;3.43;2.83;;;12.50;99.90;;;;;;5050139;28;20676;-67
2022/06/02 03:12:18;;;;;;;2.63;2.43;;;12.50;99.90;;;;;;5044761;28;20230;-67
2022/06/02 03:15:19;;;;;;;3.40;2.70;;;12.50;99.90;;;;;;5050660;28;20671;-67
2022/06/02 03:18:09;;;;;;;2.87;2.57;;;12.50;99.90;;;;;;5049834;28;20261;-67
2022/06/02 03:21:08;;;;;;;2.93;2.73;;;12.50;99.90;;;;;;5050677;28;20206;-67
2022/06/02 03:24:05;;;;;;;2.60;2.40;;;12.50;99.90;;;;;;5050681;28;20203;-67
2022/06/02 03:26:39;;;;;;;3.57;3.07;;;12.60;99.90;;;;;;5050395;28;20214;-67
2022/06/02 03:29:22;;;;;;;3.83;2.90;;;12.80;99.90;;;;;;5049822;28;20176;-67
2022/06/02 03:31:48;;;;;;;3.03;2.73;;;12.90;99.90;;;;;;5042774;28;20644;-67
2022/06/02 03:34:18;;;;;;;3.43;2.67;;;13.00;99.90;;;;;;5054342;28;20183;-67
2022/06/02 03:37:23;;;;;;;2.97;2.73;;;13.10;99.90;;;;;;5043496;28;20234;-67
2022/06/02 03:40:24;;;;;;;2.60;2.40;;;13.70;99.90;;;;;;5027860;28;20202;-67
2022/06/02 03:43:22;;;;;;;2.60;2.40;;;15.00;99.90;;;;;;5042722;28;20668;-67
2022/06/02 03:46:04;;;;;;;3.07;2.73;;;15.00;99.90;;;;;;5042274;28;20283;-67
2022/06/02 03:49:01;;;;;;;2.07;1.93;;;14.60;99.90;;;;;;5051148;28;20224;-67
2022/06/02 03:51:37;;;;;;;3.37;2.47;;;14.50;99.90;;;;;;5054033;28;20627;-67
2022/06/02 03:54:30;;;;;;;2.57;2.37;;;14.10;99.90;;;;;;5036100;28;20703;-67
2022/06/02 03:56:55;;;;;;;2.33;2.13;;;13.80;99.90;;;;;;5047267;28;20204;-67
2022/06/02 03:59:39;;;;;;;2.43;2.23;;;13.70;99.90;;;;;;5053136;28;20210;-67
2022/06/02 04:02:14;;;;;;;2.70;2.50;;;13.60;99.90;;;;;;5036191;28;20314;-67
2022/06/02 04:04:54;;;;;;;4.50;2.60;;;13.40;99.90;;;;;;5054410;28;20317;-67
2022/06/02 04:07:35;;;;;;;2.83;2.57;;;13.30;99.90;;;;;;5053882;28;20199;-67
2022/06/02 04:10:09;;;;;;;2.43;2.10;;;13.30;99.90;;;;;;5047127;28;20203;-68
2022/06/02 04:15:30;;;;;;;2.90;2.37;;;13.10;99.90;;;;;;5053543;28;20285;-68
2022/06/02 04:18:16;;;;;;;2.63;2.43;;;13.10;99.90;;;;;;5051209;28;20211;-67
2022/06/02 04:21:07;;;;;;;2.50;2.30;;;13.10;99.90;;;;;;5053538;28;20282;-67
2022/06/02 04:23:59;;;;;;;2.90;2.70;;;13.10;99.90;;;;;;5053681;28;20675;-68
2022/06/02 04:26:46;;;;;;;3.23;2.80;;;13.10;99.90;;;;;;5053615;28;20614;-67
2022/06/02 04:29:12;;;;;;;2.80;2.40;;;13.10;99.90;;;;;;5053048;28;20226;-67
2022/06/02 04:31:51;;;;;;;3.27;2.87;;;13.20;99.90;;;;;;5053840;28;20171;-67
2022/06/02 04:34:26;;;;;;;3.47;3.17;;;13.20;99.90;;;;;;5052755;28;20278;-67
2022/06/02 04:37:06;;;;;;;3.70;3.40;;;13.20;99.90;;;;;;5035391;28;20227;-67
2022/06/02 04:40:00;;;;;;;3.63;3.00;;;13.30;99.90;;;;;;5052593;28;20207;-67
2022/06/02 04:42:54;;;;;;;3.40;3.10;;;13.50;99.90;;;;;;5045043;28;20200;-67
2022/06/02 04:45:58;;;;;;;3.93;3.20;;;13.50;99.90;;;;;;5053534;28;20629;-67
2022/06/02 04:48:44;;;;;;;4.30;3.47;;;13.60;99.90;;;;;;5034730;28;20553;-67
2022/06/02 04:51:24;;;;;;;3.30;2.90;;;13.50;99.90;;;;;;5053442;28;20611;-67
2022/06/02 04:53:53;;;;;;;4.07;3.67;;;13.60;99.90;;;;;;5053505;28;20199;-67
2022/06/02 04:56:33;;;;;;;3.97;3.40;;;13.70;99.90;;;;;;5052981;28;20227;-67
2022/06/02 04:59:19;;;;;;;5.00;3.70;;;13.70;99.90;;;;;;5034236;28;20178;-67
2022/06/02 05:02:19;;;;;;;3.93;3.53;;;13.80;99.90;;;;;;5035560;28;20171;-67
2022/06/02 05:05:10;;;;;;;4.57;3.70;;;13.70;99.90;;;;;;5053053;28;20729;-67
2022/06/02 05:07:49;;;;;;;4.50;3.73;;;13.70;99.90;;;;;;5053279;28;20203;-67
2022/06/02 05:10:21;;;;;;;4.53;3.87;;;13.70;99.90;;;;;;5052717;28;20565;-67
2022/06/02 05:13:09;;;;;;;5.87;3.90;;;13.70;99.90;;;;;;5052989;28;20231;-67
2022/06/02 05:15:48;;;;;;;6.53;4.40;;;13.80;99.90;;;;;;5052790;28;20218;-67
2022/06/02 05:18:41;;;;;;;5.03;4.53;;;13.90;99.90;;;;;;5034057;28;20200;-67
2022/06/02 05:21:36;;;;;;;4.80;4.13;;;13.90;99.90;;;;;;5052799;28;20208;-67
2022/06/02 05:24:32;;;;;;;5.10;4.60;;;14.00;99.90;;;;;;5052876;28;20195;-67
2022/06/02 05:27:07;;;;;;;6.07;4.20;;;14.10;99.90;;;;;;5052692;28;20199;-67
2022/06/02 05:30:08;;;;;;;5.60;4.82;;;14.20;99.90;;;;;;5051675;28;20207;-67
2022/06/02 05:33:06;;;;;;;5.20;4.70;;;14.50;99.90;;;;;;5034356;28;20208;-67
2022/06/02 05:35:57;;;;;;;5.68;5.18;;;14.50;99.90;;;;;;5052027;28;20212;-67
2022/06/02 05:38:47;;;;;;;5.30;4.80;;;14.70;99.90;;;;;;5051235;28;20204;-67
2022/06/02 05:41:27;;;;;;;7.82;5.18;;;14.90;99.90;;;;;;5053084;28;20199;-67
2022/06/02 05:44:17;;;;;;;5.72;5.03;;;15.40;99.90;;;;;;5052278;28;20183;-68
2022/06/02 05:47:01;;;;;;;5.13;4.63;;;16.60;99.90;;;;;;5052454;28;20195;-67
2022/06/02 05:49:32;;;;;;;4.75;4.05;;;18.60;99.90;;;;;;5051713;28;20199;-67
2022/06/02 05:52:39;;;;;;;5.43;4.03;;;20.60;99.90;;;;;;5052031;28;20203;-68
2022/06/02 05:55:29;;;;;;;4.85;4.45;;;21.30;99.90;;;;;;5051385;28;20214;-68
2022/06/02 05:58:16;;;;;;;5.85;4.68;;;22.00;99.90;;;;;;5051740;28;20199;-67
2022/06/02 06:00:54;;;;;;;5.00;4.50;;;22.80;99.90;;;;;;5042927;28;20684;-68
2022/06/02 06:03:56;;;;;;;5.88;4.85;;;23.80;99.90;;;;;;5051174;28;20294;-67
2022/06/02 06:06:33;;;;;;;4.90;4.30;;;24.30;99.90;;;;;;5043198;28;20202;-68
2022/06/02 06:09:04;;;;;;;5.10;4.70;;;23.10;99.90;;;;;;5050686;28;20195;-68
2022/06/02 06:11:56;;;;;;;5.45;4.95;;;21.80;99.90;;;;;;5051347;28;20211;-68
2022/06/02 06:14:30;;;;;;;5.03;4.63;;;22.00;99.90;;;;;;5033874;28;20203;-68
2022/06/02 06:17:15;;;;;;;5.95;5.45;;;21.20;99.90;;;;;;5033769;28;20265;-68
2022/06/02 06:20:35;;;;;;;6.45;5.85;;;21.00;99.90;;;;;;5050787;28;20241;-68
2022/06/02 06:23:52;;;;;;;6.15;5.63;;;22.40;99.90;;;;;;5051596;28;20641;-68
2022/06/02 06:26:17;;;;;;;6.10;5.53;;;24.10;99.90;;;;;;5050916;28;20219;-68
2022/06/02 06:28:50;;;;;;;5.35;4.85;;;25.10;99.90;;;;;;5051611;28;20182;-71
2022/06/02 06:31:29;;;;;;;7.05;5.38;;;26.20;99.90;;;;;;5051879;28;20672;-69
2022/06/02 06:34:23;;;;;;;6.10;5.57;;;26.40;99.90;;;;;;5033570;28;20674;-69
2022/06/02 06:37:11;;;;;;;5.57;5.07;;;26.20;99.90;;;;;;5050821;28;20242;-69
2022/06/02 06:40:18;;;;;;;5.80;5.15;;;26.40;99.90;;;;;;5050340;28;20676;-69
2022/06/02 06:43:09;;;;;;;6.68;6.00;;;26.30;99.90;;;;;;5011386;28;20333;-69
2022/06/02 06:46:02;;;;;;;7.30;5.93;;;25.60;99.90;;;;;;5021997;28;20199;-68
2022/06/02 06:48:50;;;;;;;5.88;5.07;;;24.90;99.90;;;;;;5048976;28;20200;-68
2022/06/02 06:51:43;;;;;;;9.45;6.40;;;22.80;99.90;;;;;;5046914;28;20589;-68
2022/06/02 06:54:25;;;;;;;6.50;5.88;;;23.60;99.90;;;;;;5050789;28;20257;-68
2022/06/02 06:57:12;;;;;;;6.28;5.68;;;24.30;99.90;;;;;;5050598;28;20217;-67
2022/06/02 06:59:50;;;;;;;6.53;5.93;;;24.10;99.90;;;;;;5050068;28;20211;-68
2022/06/02 07:02:35;;;;;;;5.82;5.30;;;23.90;99.90;;;;;;5051108;28;20207;-68
2022/06/02 07:05:25;;;;;;;6.22;5.05;;;23.90;99.90;;;;;;5026725;28;20171;-68
2022/06/02 07:08:21;;;;;;;5.88;5.18;;;25.10;99.90;;;;;;5050465;28;20211;-68
2022/06/02 07:11:03;;;;;;;5.15;4.65;;;25.80;99.90;;;;;;5033487;28;20174;-68
2022/06/02 07:13:37;;;;;;;5.50;5.03;;;26.00;99.90;;;;;;5051111;28;20254;-68
2022/06/02 07:16:26;;;;;;;6.22;5.13;;;25.40;99.90;;;;;;5051155;28;20310;-68
2022/06/02 07:19:09;;;;;;;5.60;4.93;;;25.20;99.90;;;;;;5052851;28;20200;-68
2022/06/02 07:21:54;;;;;;;6.05;5.50;;;25.40;99.90;;;;;;5055838;28;20221;-68
2022/06/02 07:24:37;;;;;;;6.93;4.82;;;26.30;99.90;;;;;;5054571;28;20196;-68
2022/06/02 07:27:29;;;;;;;6.70;4.38;;;26.90;99.90;;;;;;5034857;28;20222;-68
2022/06/02 07:30:20;;;;;;;5.32;4.22;;;26.70;99.90;;;;;;5031784;28;20289;-68
2022/06/02 07:33:04;;;;;;;4.70;4.30;;;28.10;99.90;;;;;;5032477;28;20204;-68
2022/06/02 07:35:35;;;;;;;4.13;3.72;;;28.70;99.90;;;;;;5048541;28;20223;-70
2022/06/02 07:38:38;;;;;;;3.33;3.03;;;28.30;99.90;;;;;;5046006;28;20184;-72
2022/06/02 07:41:34;;;;;;;5.05;3.60;;;28.70;98.60;;;;;;5034697;28;20254;-70
2022/06/02 07:44:11;;;;;;;3.92;3.53;;;28.20;97.80;;;;;;5038536;28;20173;-70
2022/06/02 07:46:52;;;;;;;4.90;4.40;;;26.80;99.90;;;;;;5046158;28;20286;-70
2022/06/02 07:49:49;;;;;;;3.58;3.15;;;27.90;99.50;;;;;;5070649;22;20223;-73
2022/06/02 07:52:35;;;;;;;4.30;3.90;;;28.10;97.60;;;;;;5049830;28;20573;-72
2022/06/02 07:55:28;;;;;;;5.53;3.30;;;26.40;98.80;;;;;;5035927;28;20191;-75
2022/06/02 07:57:53;;;;;;;5.75;3.28;;;25.00;99.90;;;;;;5051434;28;20206;-76
2022/06/02 08:00:20;;;;;;;3.33;2.78;;;26.50;99.20;;;;;;5060952;28;20567;-74
2022/06/02 08:03:09;;;;;;;5.25;3.95;;;26.40;98.50;;;;;;5050996;28;20199;-73
2022/06/02 08:05:58;;;;;;;4.05;3.00;;;27.50;98.10;;;;;;5055423;28;20302;-73
2022/06/02 08:08:29;;;;;;;3.55;3.13;;;28.40;96.80;;;;;;5060336;28;20210;-73
2022/06/02 08:11:13;;;;;;;5.07;3.67;;;28.50;94.60;;;;;;5043161;28;20192;-72
2022/06/02 08:13:58;;;;;;;6.32;3.20;;;28.60;94.90;;;;;;5039347;28;20171;-73
2022/06/02 08:16:55;;;;;;;15.60;10.43;;;28.30;94.30;;;;;;5069541;28;20229;-72
2022/06/02 08:19:44;;;;;;;3.90;3.50;;;27.30;93.90;;;;;;5059422;28;20214;-71
2022/06/02 08:22:14;;;;;;;3.40;2.03;;;27.60;94.70;;;;;;5065438;28;20195;-73
2022/06/02 08:25:05;;;;;;;4.07;1.92;;;27.60;94.20;;;;;;5049810;28;20229;-72
2022/06/02 08:27:34;;;;;;;2.65;2.40;;;26.40;93.60;;;;;;5044569;28;20256;-73
2022/06/02 08:30:17;;;;;;;5.05;2.17;;;25.50;95.60;;;;;;5067326;28;20630;-73
2022/06/02 08:32:56;;;;;;;3.03;2.58;;;24.70;96.10;;;;;;5043055;28;20195;-73
2022/06/02 08:35:30;;;;;;;3.90;2.45;;;24.00;97.50;;;;;;5054885;28;20401;-73
2022/06/02 08:38:22;;;;;;;3.42;2.28;;;23.20;99.10;;;;;;5042657;28;20189;-73
2022/06/02 08:41:33;;;;;;;3.10;2.50;;;22.30;99.90;;;;;;5044652;28;20188;-73
2022/06/02 08:44:17;;;;;;;5.68;3.00;;;22.90;99.90;;;;;;5024895;28;20268;-73
2022/06/02 08:47:03;;;;;;;4.22;3.00;;;24.40;99.00;;;;;;5067399;28;20266;-74
2022/06/02 08:49:58;;;;;;;2.97;2.33;;;25.50;97.90;;;;;;5041098;28;20674;-73
2022/06/02 08:52:45;;;;;;;2.33;1.85;;;26.00;96.40;;;;;;5051860;28;20210;-73
2022/06/02 08:55:32;;;;;;;2.03;1.80;;;25.80;94.10;;;;;;5068698;28;20203;-73
2022/06/02 08:57:58;;;;;;;3.83;1.98;;;25.70;93.70;;;;;;5061003;28;20699;-73
2022/06/02 09:00:48;;;;;;;2.67;1.88;;;25.70;93.80;;;;;;5067877;28;20294;-74
2022/06/02 09:03:28;;;;;;;2.88;2.35;;;26.10;93.60;;;;;;5047130;28;20241;-74
2022/06/02 09:06:03;;;;;;;4.05;2.08;;;25.40;94.10;;;;;;5064167;28;20207;-74
2022/06/02 09:09:15;;;;;;;4.13;2.60;;;24.40;95.50;;;;;;5044148;28;20211;-73
2022/06/02 09:12:02;;;;;;;2.35;1.58;;;25.10;95.10;;;;;;5038710;28;20211;-73
2022/06/02 09:14:30;;;;;;;2.10;1.65;;;25.30;94.30;;;;;;5072785;28;20565;-73
2022/06/02 09:17:01;;;;;;;3.22;1.77;;;25.90;94.20;;;;;;5042345;28;20192;-73
2022/06/02 09:19:58;;;;;;;2.03;1.77;;;26.60;94.10;;;;;;5053145;28;20198;-73
2022/06/02 09:22:37;;;;;;;3.47;1.58;;;25.80;94.10;;;;;;5033577;28;20242;-73
2022/06/02 09:25:06;;;;;;;4.13;1.80;;;24.30;95.50;;;;;;5065245;28;20541;-73
2022/06/02 09:27:44;;;;;;;2.58;1.65;;;23.60;96.80;;;;;;5049045;28;20215;-73
2022/06/02 09:30:52;;;;;;;2.17;1.58;;;23.20;97.10;;;;;;5043197;28;20295;-73
2022/06/02 09:33:38;;;;;;;6.13;1.65;;;22.80;98.40;;;;;;5048934;28;20199;-73
2022/06/02 09:36:04;;;;;;;2.92;1.55;;;22.20;99.10;;;;;;5040966;28;20203;-74
2022/06/02 09:38:41;;;;;;;3.28;1.42;;;21.60;99.90;;;;;;5043004;28;20195;-74
2022/06/02 09:41:27;;;;;;;3.38;2.15;;;21.10;99.90;;;;;;5046437;28;20211;-73
2022/06/02 09:44:08;;;;;;;9.20;2.10;;;21.80;99.90;;;;;;5034043;28;20168;-74
2022/06/02 09:47:12;;;;;;;2.17;1.63;;;22.90;99.90;;;;;;5067885;28;20204;-73
2022/06/02 09:49:50;;;;;;;1.83;1.52;;;23.00;99.30;;;;;;5046188;28;20249;-74
2022/06/02 09:52:25;;;;;;;3.03;1.58;;;23.40;98.70;;;;;;5071787;28;20210;-73
2022/06/02 09:55:04;;;;;;;3.47;1.90;;;23.00;97.90;;;;;;5064647;28;20199;-73
2022/06/02 09:57:57;;;;;;;4.15;2.63;;;23.10;98.50;;;;;;5061327;28;20290;-73
2022/06/02 10:01:10;;;;;;;2.88;2.00;;;23.30;99.10;;;;;;5061299;28;20710;-74
2022/06/02 10:03:51;;;;;;;3.50;2.35;;;22.60;99.30;;;;;;5048845;28;20232;-73
2022/06/02 10:06:44;;;;;;;2.67;1.90;;;22.30;99.60;;;;;;5046217;28;20199;-73
2022/06/02 10:09:37;;;;;;;2.42;1.48;;;22.50;99.70;;;;;;5058664;28;20740;-72
2022/06/02 10:15:32;;;;;;;4.32;2.83;;;22.30;99.20;;;;;;5067010;28;20218;-72
2022/06/02 10:18:22;;;;;;;2.85;1.40;;;22.10;99.70;;;;;;5046643;28;20202;-73
2022/06/02 10:21:06;;;;;;;2.95;1.50;;;21.50;99.90;;;;;;5066208;28;20704;-72
2022/06/02 10:23:41;;;;;;;3.67;1.85;;;20.90;99.90;;;;;;5045868;28;20230;-72
2022/06/02 10:26:35;;;;;;;4.00;1.88;;;21.20;99.90;;;;;;5061174;28;20269;-72
2022/06/02 10:29:22;;;;;;;16.75;8.43;;;21.70;99.90;;;;;;5042125;28;20198;-72
2022/06/02 10:32:03;;;;;;;5.82;2.70;;;22.40;99.90;;;;;;5065423;28;20199;-72
2022/06/02 10:35:01;;;;;;;3.40;2.00;;;22.50;99.90;;;;;;5041718;28;20171;-72
2022/06/02 10:37:48;;;;;;;2.92;1.65;;;22.20;99.70;;;;;;5048533;28;20223;-73
2022/06/02 10:40:25;;;;;;;3.25;2.05;;;22.00;99.90;;;;;;5061438;28;20198;-73
2022/06/02 10:42:59;;;;;;;3.78;1.25;;;22.50;99.10;;;;;;5064193;28;20203;-74
2022/06/02 10:45:53;;;;;;;3.05;1.30;;;22.80;98.90;;;;;;5041278;28;20201;-73
2022/06/02 10:49:04;;;;;;;0.90;0.90;;;22.80;98.00;;;;;;5038160;28;21164;-73
2022/06/02 10:52:07;;;;;;;3.70;1.65;;;23.00;97.50;;;;;;5068620;28;20620;-74
2022/06/02 10:54:51;;;;;;;2.70;1.67;;;22.90;97.70;;;;;;5045203;28;20202;-73
2022/06/02 10:57:45;;;;;;;2.50;1.92;;;22.10;97.80;;;;;;5066660;28;20218;-73
2022/06/02 11:00:16;;;;;;;2.95;1.48;;;22.20;98.20;;;;;;5064941;28;20214;-74
2022/06/02 11:03:28;;;;;;;4.18;2.83;;;22.40;98.30;;;;;;5066502;28;20254;-74
2022/06/02 11:06:29;;;;;;;3.88;1.88;;;22.70;97.90;;;;;;5032859;28;20252;-74
2022/06/02 11:08:58;;;;;;;1.65;1.50;;;23.00;97.80;;;;;;5051043;28;20210;-74
2022/06/02 11:11:47;;;;;;;4.63;2.53;;;22.80;96.60;;;;;;5064968;28;20199;-73
2022/06/02 11:14:37;;;;;;;2.30;1.67;;;22.50;97.30;;;;;;5048038;28;20210;-73
2022/06/02 11:17:14;;;;;;;2.40;1.35;;;22.50;97.60;;;;;;5036730;28;20222;-72
2022/06/02 11:20:10;;;;;;;3.33;1.50;;;22.40;97.10;;;;;;5050926;28;20244;-73
2022/06/02 11:23:23;;;;;;;3.40;1.33;;;22.70;97.50;;;;;;5056922;28;20687;-72
2022/06/02 11:25:54;;;;;;;3.28;1.35;;;22.60;96.20;;;;;;5009867;28;20202;-72
2022/06/02 11:28:53;;;;;;;2.30;1.10;;;22.40;96.50;;;;;;5058905;28;20179;-74
2022/06/02 11:31:34;;;;;;;1.95;1.25;;;22.40;96.80;;;;;;5051992;28;20633;-75
2022/06/02 11:34:17;;;;;;;2.70;1.13;;;22.50;96.60;;;;;;5034627;28;20229;-77
2022/06/02 11:37:10;;;;;;;2.58;1.00;;;22.90;97.00;;;;;;5052861;28;20214;-73
2022/06/02 11:40:00;;;;;;;3.80;1.50;;;22.80;96.50;;;;;;5039403;28;20207;-75
2022/06/02 11:42:55;;;;;;;2.72;1.17;;;22.40;96.30;;;;;;5038331;28;20203;-73
2022/06/02 11:45:39;;;;;;;4.28;2.75;;;22.10;96.00;;;;;;5040100;28;20207;-73
2022/06/02 11:48:20;;;;;;;3.17;1.55;;;22.40;96.30;;;;;;5035113;28;20219;-72
2022/06/02 11:51:10;;;;;;;1.23;1.10;;;22.50;95.50;;;;;;5052527;28;20218;-76
2022/06/02 11:54:14;;;;;;;2.38;1.50;;;22.40;94.60;;;;;;5065172;28;20194;-77
2022/06/02 11:56:52;;;;;;;2.80;1.48;;;22.40;94.90;;;;;;5067238;28;20222;-78
2022/06/02 11:59:59;;;;;;;3.13;1.17;;;22.00;95.80;;;;;;5039336;28;20231;-74
2022/06/02 12:02:44;;;;;;;3.00;1.15;;;21.30;95.70;;;;;;5055780;28;20617;-74
2022/06/02 12:05:44;;;;;;;1.60;1.10;;;21.10;95.70;;;;;;5065928;28;20264;-74
2022/06/02 12:08:47;;;;;;;4.30;2.00;;;20.90;96.10;;;;;;5040075;28;20207;-74
2022/06/02 12:11:34;;;;;;;2.08;1.38;;;20.90;96.90;;;;;;5064701;28;20570;-72
2022/06/02 12:14:18;;;;;;;2.35;1.83;;;20.90;97.10;;;;;;5074317;28;20203;-74
2022/06/02 12:17:21;;;;;;;4.38;1.55;;;21.10;97.80;;;;;;5055145;28;20214;-74
2022/06/02 12:20:03;;;;;;;1.33;1.10;;;21.40;96.90;;;;;;5060088;28;20211;-73
2022/06/02 12:22:53;;;;;;;1.98;1.30;;;21.40;96.20;;;;;;5061229;28;20675;-71
2022/06/02 12:25:56;;;;;;;2.10;0.98;;;21.60;95.40;;;;;;5071943;28;20656;-71
2022/06/02 12:28:46;;;;;;;1.73;0.90;;;21.50;95.60;;;;;;5038428;28;20278;-70
2022/06/02 12:31:30;;;;;;;1.15;1.00;;;21.30;96.20;;;;;;5042730;28;20203;-72
2022/06/02 12:34:09;;;;;;;2.00;1.70;;;21.10;96.20;;;;;;5065526;28;20207;-73
2022/06/02 12:37:10;;;;;;;0.95;0.80;;;21.20;97.40;;;;;;5052155;28;20217;-73
2022/06/02 12:40:20;;;;;;;1.45;0.95;;;21.10;96.00;;;;;;5039849;28;20203;-73
2022/06/02 12:43:26;;;;;;;2.38;1.10;;;20.70;96.20;;;;;;5032079;28;20706;-75
2022/06/02 12:46:10;;;;;;;2.10;1.10;;;20.40;96.20;;;;;;5066245;28;20210;-77
2022/06/02 12:48:56;;;;;;;1.75;1.10;;;20.40;96.90;;;;;;5053630;28;20215;-75
2022/06/02 12:51:56;;;;;;;2.75;1.00;;;20.30;97.40;;;;;;5050503;28;20214;-75
2022/06/02 12:54:49;;;;;;;2.80;1.08;;;20.10;97.20;;;;;;5061747;28;20199;-74
2022/06/02 12:57:44;;;;;;;3.10;1.10;;;20.60;97.50;;;;;;5067805;28;20546;-76
2022/06/02 13:00:43;;;;;;;2.15;1.58;;;20.80;96.70;;;;;;5047535;28;20517;-78
2022/06/02 13:03:29;;;;;;;2.05;1.40;;;20.70;96.50;;;;;;5059311;28;20278;-76
2022/06/02 13:06:00;;;;;;;3.17;1.02;;;20.70;96.40;;;;;;5061021;28;20203;-75
2022/06/02 13:08:47;;;;;;;2.33;0.98;;;20.80;97.10;;;;;;5042187;28;20203;-76
2022/06/02 13:11:54;;;;;;;3.65;2.35;;;21.10;96.50;;;;;;5062840;28;20270;-76
2022/06/02 13:14:32;;;;;;;2.15;0.95;;;21.20;96.00;;;;;;5050946;28;20206;-76
2022/06/02 13:17:21;;;;;;;2.13;1.38;;;21.00;95.40;;;;;;5038367;28;20199;-76
2022/06/02 13:19:58;;;;;;;2.00;1.00;;;21.10;95.90;;;;;;5047006;28;20183;-78
2022/06/02 13:22:50;;;;;;;1.65;1.30;;;21.20;96.00;;;;;;5042060;28;20171;-76
2022/06/02 13:26:01;;;;;;;1.55;0.93;;;21.10;96.20;;;;;;5054745;28;20201;-78
2022/06/02 13:28:39;;;;;;;1.50;0.98;;;21.10;96.10;;;;;;5047047;28;20229;-77
2022/06/02 13:31:24;;;;;;;1.67;0.90;;;21.30;96.70;;;;;;5045697;28;20199;-77
2022/06/02 13:33:53;;;;;;;1.15;1.00;;;21.30;95.60;;;;;;5054873;28;20200;-77
2022/06/02 13:36:40;;;;;;;1.23;1.00;;;21.30;95.40;;;;;;5063332;28;20251;-79
2022/06/02 13:39:25;;;;;;;2.15;1.10;;;21.10;95.30;;;;;;5061118;28;20207;-78
2022/06/02 13:42:25;;;;;;;2.85;1.15;;;21.40;95.70;;;;;;5058783;28;20195;-76
2022/06/02 13:45:22;;;;;;;2.50;1.15;;;21.30;95.80;;;;;;5035085;28;20241;-76
2022/06/02 13:48:05;;;;;;;2.05;1.08;;;21.50;95.90;;;;;;5065310;28;20200;-76
2022/06/02 13:51:10;;;;;;;2.20;1.20;;;21.80;96.20;;;;;;5097759;22;20732;-77
2022/06/02 13:57:44;;;;;;;2.22;1.33;;;21.40;96.20;;;;;;5108036;28;20350;-75
2022/06/02 14:00:44;;;;;;;2.13;1.30;;;21.30;96.40;;;;;;5104546;28;20197;-74
2022/06/02 14:03:41;;;;;;;3.25;1.20;;;21.50;96.60;;;;;;5102256;28;20627;-73
2022/06/02 14:06:12;;;;;;;1.83;1.35;;;21.40;97.00;;;;;;5109143;28;20202;-75
2022/06/02 14:08:47;;;;;;;2.13;1.00;;;21.00;97.20;;;;;;5092558;28;20636;-74
2022/06/02 14:11:35;;;;;;;2.08;1.25;;;20.80;97.50;;;;;;5089755;28;20203;-75
2022/06/02 14:14:37;;;;;;;1.65;0.90;;;20.90;97.80;;;;;;5110206;28;20172;-71
2022/06/02 14:17:14;;;;;;;1.33;1.08;;;21.00;97.60;;;;;;5105673;28;20190;-73
2022/06/02 14:20:14;;;;;;;2.05;1.40;;;21.10;97.30;;;;;;5094224;28;20264;-73
2022/06/02 14:23:07;;;;;;;1.23;1.13;;;21.20;97.90;;;;;;5104910;28;20194;-72
2022/06/02 14:25:48;;;;;;;2.67;1.15;;;21.20;97.70;;;;;;5090406;28;20209;-75
2022/06/02 14:28:35;;;;;;;3.08;1.13;;;21.00;98.10;;;;;;5079817;28;20727;-77
2022/06/02 14:31:14;;;;;;;1.77;1.17;;;21.50;98.20;;;;;;5099047;28;20201;-72
2022/06/02 14:33:45;;;;;;;1.70;1.20;;;21.40;97.70;;;;;;5099021;28;20233;-73
2022/06/02 14:36:35;;;;;;;1.10;1.00;;;21.00;98.20;;;;;;5082754;28;20212;-72
2022/06/02 14:39:43;;;;;;;1.30;1.20;;;21.20;98.80;;;;;;5092316;28;20737;-72